Airfield :
LOGIN :

Register | Disclaimer

   EN    FR    IT 

 










Legend :    VFR   Marginal VFR   IFR   Intensive IFR   Very Intensive IFR
Visi :
Ceiling :
>= 8 km
>= 3000ft
5 to 8 km
1000 to 3000 ft
1500m to 5 km
500 to 1000 ft
800 to 1500m
200 to 500 ft
< 800m
< 200 ft
Symbols :   Thunderstorms  Fog  Heavy snow  Heavy precipitations  Wind > 20 kt
SIGMETs :     Misc.  Thunderstorms  Icing  Turbulence  Mountain Waves  Volcanic Ashes






- Airport Elevation : 1947 ft
- IATA code : OBF


EDMO - Oberpfaffenhofen

CURRENT METAR :
  • 301620Z 33003KT 260V050 9999 -RA VCSH NCS 24/17 Q1012

EXPIRED METARs :
  • 301550Z 02006KT 9999 VCSH NSC 25/17 Q1012
  • 301520Z 03008KT CAVOK 25/17 Q1012
  • 301450Z 05008KT CAVOK 26/17 Q1011
  • 301420Z 04010KT 010V080 CAVOK 27/16 Q1012
  • 301350Z 07008KT 020V100 CAVOK 28/16 Q1012

TAF TAF EDMO
Valid from the 30 at 15:00 until the 01 at 00:00 UTC


301400Z 3015/3024 05007KT CAVOK
PROB30
TEMPO 3016/3018 22015G25KT TSRA BKN030CB
BECMG 3019/3021 23008KT



MET'MAP, your aeronautical weather chart ! - Copyright ORBIFLY December 2007 - Disclaimer

ORBIFLY MET'MAP TEAM :

Programming & Development : Alexandra Zaïnal
Original concept : Baudouin d'Aumeries
Technical & hardware support : Manuel Goepfert
Assistance : Marc-Olivier Méhu




SOURCES & CREDITS :

   NOAA